sensor_id;sensor_type;location;lat;lon;timestamp;P1;durP1;ratioP1;P2;durP2;ratioP2
16967;SDS011;8600;54.338;10.128;2022-08-18T00:01:48;24.33;;;12.15;;
16967;SDS011;8600;54.338;10.128;2022-08-18T00:04:19;19.15;;;11.88;;
16967;SDS011;8600;54.338;10.128;2022-08-18T00:06:46;19.55;;;11.07;;
16967;SDS011;8600;54.338;10.128;2022-08-18T00:09:13;16.35;;;10.10;;
16967;SDS011;8600;54.338;10.128;2022-08-18T00:11:42;15.90;;;9.50;;
16967;SDS011;8600;54.338;10.128;2022-08-18T00:14:10;14.27;;;8.95;;
16967;SDS011;8600;54.338;10.128;2022-08-18T00:16:40;13.35;;;8.73;;
16967;SDS011;8600;54.338;10.128;2022-08-18T00:19:07;13.45;;;8.45;;
16967;SDS011;8600;54.338;10.128;2022-08-18T00:21:34;10.35;;;7.90;;
16967;SDS011;8600;54.338;10.128;2022-08-18T00:24:01;13.27;;;7.82;;
16967;SDS011;8600;54.338;10.128;2022-08-18T00:26:29;9.75;;;7.57;;
16967;SDS011;8600;54.338;10.128;2022-08-18T00:28:57;11.63;;;6.70;;
16967;SDS011;8600;54.338;10.128;2022-08-18T00:31:24;11.68;;;7.00;;
16967;SDS011;8600;54.338;10.128;2022-08-18T00:33:52;11.77;;;6.75;;
16967;SDS011;8600;54.338;10.128;2022-08-18T00:36:19;11.88;;;6.78;;
16967;SDS011;8600;54.338;10.128;2022-08-18T00:38:45;10.35;;;7.40;;
16967;SDS011;8600;54.338;10.128;2022-08-18T00:41:12;10.20;;;6.50;;
16967;SDS011;8600;54.338;10.128;2022-08-18T00:43:41;9.80;;;6.55;;
16967;SDS011;8600;54.338;10.128;2022-08-18T00:46:13;8.65;;;5.78;;
16967;SDS011;8600;54.338;10.128;2022-08-18T00:48:43;7.03;;;5.47;;
16967;SDS011;8600;54.338;10.128;2022-08-18T00:51:12;8.88;;;5.70;;
16967;SDS011;8600;54.338;10.128;2022-08-18T00:53:45;9.75;;;5.70;;
16967;SDS011;8600;54.338;10.128;2022-08-18T00:56:21;11.93;;;5.32;;
16967;SDS011;8600;54.338;10.128;2022-08-18T00:58:51;9.15;;;5.05;;
16967;SDS011;8600;54.338;10.128;2022-08-18T01:01:25;9.85;;;5.20;;
16967;SDS011;8600;54.338;10.128;2022-08-18T01:03:57;10.43;;;5.30;;
16967;SDS011;8600;54.338;10.128;2022-08-18T01:06:29;6.25;;;5.10;;
16967;SDS011;8600;54.338;10.128;2022-08-18T01:08:59;6.68;;;5.07;;
16967;SDS011;8600;54.338;10.128;2022-08-18T01:11:27;8.38;;;5.25;;
16967;SDS011;8600;54.338;10.128;2022-08-18T01:13:54;8.05;;;5.30;;
16967;SDS011;8600;54.338;10.128;2022-08-18T01:16:22;10.05;;;5.22;;
16967;SDS011;8600;54.338;10.128;2022-08-18T01:19:08;7.95;;;5.32;;
16967;SDS011;8600;54.338;10.128;2022-08-18T01:21:54;8.45;;;5.28;;
16967;SDS011;8600;54.338;10.128;2022-08-18T01:24:29;9.15;;;5.57;;
16967;SDS011;8600;54.338;10.128;2022-08-18T01:27:18;6.75;;;5.03;;
16967;SDS011;8600;54.338;10.128;2022-08-18T01:29:45;9.73;;;5.47;;
16967;SDS011;8600;54.338;10.128;2022-08-18T01:32:15;8.85;;;5.10;;
16967;SDS011;8600;54.338;10.128;2022-08-18T01:34:44;7.50;;;4.47;;
16967;SDS011;8600;54.338;10.128;2022-08-18T01:37:13;7.80;;;4.43;;
16967;SDS011;8600;54.338;10.128;2022-08-18T01:39:43;8.00;;;4.45;;
16967;SDS011;8600;54.338;10.128;2022-08-18T01:42:12;6.75;;;4.30;;
16967;SDS011;8600;54.338;10.128;2022-08-18T01:44:41;7.10;;;4.07;;
16967;SDS011;8600;54.338;10.128;2022-08-18T01:47:09;7.97;;;4.43;;
16967;SDS011;8600;54.338;10.128;2022-08-18T01:49:37;11.20;;;4.80;;
16967;SDS011;8600;54.338;10.128;2022-08-18T01:52:07;11.38;;;5.05;;
16967;SDS011;8600;54.338;10.128;2022-08-18T01:54:34;8.65;;;4.72;;
16967;SDS011;8600;54.338;10.128;2022-08-18T01:57:03;10.68;;;4.75;;
16967;SDS011;8600;54.338;10.128;2022-08-18T01:59:30;8.88;;;4.35;;
16967;SDS011;8600;54.338;10.128;2022-08-18T02:01:59;9.38;;;4.43;;
16967;SDS011;8600;54.338;10.128;2022-08-18T02:04:28;9.48;;;4.22;;
16967;SDS011;8600;54.338;10.128;2022-08-18T02:06:58;6.93;;;3.60;;
16967;SDS011;8600;54.338;10.128;2022-08-18T02:09:26;7.00;;;3.22;;
16967;SDS011;8600;54.338;10.128;2022-08-18T02:11:54;6.80;;;3.50;;
16967;SDS011;8600;54.338;10.128;2022-08-18T02:14:22;6.45;;;3.50;;
16967;SDS011;8600;54.338;10.128;2022-08-18T02:16:49;6.90;;;3.25;;
16967;SDS011;8600;54.338;10.128;2022-08-18T02:19:16;8.32;;;3.58;;
16967;SDS011;8600;54.338;10.128;2022-08-18T02:21:43;10.98;;;3.70;;
16967;SDS011;8600;54.338;10.128;2022-08-18T02:24:10;7.13;;;3.38;;
16967;SDS011;8600;54.338;10.128;2022-08-18T02:26:40;8.98;;;3.58;;
16967;SDS011;8600;54.338;10.128;2022-08-18T02:29:07;9.43;;;3.45;;
16967;SDS011;8600;54.338;10.128;2022-08-18T02:31:35;8.38;;;2.83;;
16967;SDS011;8600;54.338;10.128;2022-08-18T02:34:02;5.05;;;2.70;;
16967;SDS011;8600;54.338;10.128;2022-08-18T02:36:29;5.13;;;2.83;;
16967;SDS011;8600;54.338;10.128;2022-08-18T02:38:56;7.68;;;3.03;;
16967;SDS011;8600;54.338;10.128;2022-08-18T02:41:23;8.27;;;3.00;;
16967;SDS011;8600;54.338;10.128;2022-08-18T02:43:52;5.88;;;2.90;;
16967;SDS011;8600;54.338;10.128;2022-08-18T02:46:19;5.70;;;2.85;;
16967;SDS011;8600;54.338;10.128;2022-08-18T02:48:47;7.57;;;3.08;;
16967;SDS011;8600;54.338;10.128;2022-08-18T02:51:15;7.65;;;3.10;;
16967;SDS011;8600;54.338;10.128;2022-08-18T02:53:43;6.47;;;2.85;;
16967;SDS011;8600;54.338;10.128;2022-08-18T02:56:12;6.00;;;2.83;;
16967;SDS011;8600;54.338;10.128;2022-08-18T02:58:50;5.80;;;2.70;;
16967;SDS011;8600;54.338;10.128;2022-08-18T03:01:18;7.85;;;3.17;;
16967;SDS011;8600;54.338;10.128;2022-08-18T03:03:47;5.25;;;2.95;;
16967;SDS011;8600;54.338;10.128;2022-08-18T03:06:15;5.25;;;2.90;;
16967;SDS011;8600;54.338;10.128;2022-08-18T03:08:43;5.68;;;3.40;;
16967;SDS011;8600;54.338;10.128;2022-08-18T03:11:13;6.07;;;3.40;;
16967;SDS011;8600;54.338;10.128;2022-08-18T03:13:40;6.68;;;3.83;;
16967;SDS011;8600;54.338;10.128;2022-08-18T03:16:07;7.05;;;3.17;;
16967;SDS011;8600;54.338;10.128;2022-08-18T03:18:35;7.18;;;3.30;;
16967;SDS011;8600;54.338;10.128;2022-08-18T03:21:05;5.70;;;2.80;;
16967;SDS011;8600;54.338;10.128;2022-08-18T03:23:32;6.72;;;3.10;;
16967;SDS011;8600;54.338;10.128;2022-08-18T03:25:59;5.97;;;2.70;;
16967;SDS011;8600;54.338;10.128;2022-08-18T03:28:26;7.65;;;2.88;;
16967;SDS011;8600;54.338;10.128;2022-08-18T03:30:53;5.13;;;2.70;;
16967;SDS011;8600;54.338;10.128;2022-08-18T03:33:21;5.55;;;2.67;;
16967;SDS011;8600;54.338;10.128;2022-08-18T03:35:48;4.70;;;2.78;;
16967;SDS011;8600;54.338;10.128;2022-08-18T03:38:17;4.60;;;2.80;;
16967;SDS011;8600;54.338;10.128;2022-08-18T03:40:49;5.25;;;2.80;;
16967;SDS011;8600;54.338;10.128;2022-08-18T03:43:16;6.88;;;3.05;;
16967;SDS011;8600;54.338;10.128;2022-08-18T03:45:44;7.35;;;2.80;;
16967;SDS011;8600;54.338;10.128;2022-08-18T03:48:11;6.00;;;3.10;;
16967;SDS011;8600;54.338;10.128;2022-08-18T03:50:38;4.53;;;2.97;;
16967;SDS011;8600;54.338;10.128;2022-08-18T03:53:05;4.65;;;3.00;;
16967;SDS011;8600;54.338;10.128;2022-08-18T03:55:33;6.72;;;3.10;;
16967;SDS011;8600;54.338;10.128;2022-08-18T03:58:00;7.60;;;3.42;;
16967;SDS011;8600;54.338;10.128;2022-08-18T04:00:28;7.28;;;3.20;;
16967;SDS011;8600;54.338;10.128;2022-08-18T04:02:56;6.60;;;3.20;;
16967;SDS011;8600;54.338;10.128;2022-08-18T04:05:24;7.25;;;3.30;;
16967;SDS011;8600;54.338;10.128;2022-08-18T04:07:52;7.07;;;3.55;;
16967;SDS011;8600;54.338;10.128;2022-08-18T04:10:21;6.85;;;3.58;;
16967;SDS011;8600;54.338;10.128;2022-08-18T04:12:49;5.72;;;3.75;;
16967;SDS011;8600;54.338;10.128;2022-08-18T04:15:17;7.00;;;3.33;;
16967;SDS011;8600;54.338;10.128;2022-08-18T04:17:44;6.07;;;3.65;;
16967;SDS011;8600;54.338;10.128;2022-08-18T04:20:11;7.63;;;3.63;;
16967;SDS011;8600;54.338;10.128;2022-08-18T04:22:39;10.65;;;3.75;;
16967;SDS011;8600;54.338;10.128;2022-08-18T04:25:06;7.63;;;3.75;;
16967;SDS011;8600;54.338;10.128;2022-08-18T04:27:34;8.07;;;3.88;;
16967;SDS011;8600;54.338;10.128;2022-08-18T04:30:05;6.22;;;3.90;;
16967;SDS011;8600;54.338;10.128;2022-08-18T04:32:33;7.03;;;3.95;;
16967;SDS011;8600;54.338;10.128;2022-08-18T04:35:00;5.75;;;4.18;;
16967;SDS011;8600;54.338;10.128;2022-08-18T04:37:28;7.22;;;4.75;;
16967;SDS011;8600;54.338;10.128;2022-08-18T04:39:56;10.20;;;4.70;;
16967;SDS011;8600;54.338;10.128;2022-08-18T04:42:23;6.60;;;4.45;;
16967;SDS011;8600;54.338;10.128;2022-08-18T04:44:50;6.85;;;4.15;;
16967;SDS011;8600;54.338;10.128;2022-08-18T04:47:19;7.93;;;4.40;;
16967;SDS011;8600;54.338;10.128;2022-08-18T04:49:46;7.20;;;4.20;;
16967;SDS011;8600;54.338;10.128;2022-08-18T04:52:14;6.53;;;4.43;;
16967;SDS011;8600;54.338;10.128;2022-08-18T04:54:59;8.73;;;5.03;;
16967;SDS011;8600;54.338;10.128;2022-08-18T04:57:27;6.78;;;4.65;;
16967;SDS011;8600;54.338;10.128;2022-08-18T04:59:57;8.73;;;4.85;;
16967;SDS011;8600;54.338;10.128;2022-08-18T05:02:25;6.85;;;4.95;;
16967;SDS011;8600;54.338;10.128;2022-08-18T05:04:52;7.55;;;5.30;;
16967;SDS011;8600;54.338;10.128;2022-08-18T05:07:20;6.40;;;5.03;;
16967;SDS011;8600;54.338;10.128;2022-08-18T05:09:47;9.05;;;5.00;;
16967;SDS011;8600;54.338;10.128;2022-08-18T05:12:16;6.60;;;4.78;;
16967;SDS011;8600;54.338;10.128;2022-08-18T05:14:43;10.50;;;5.88;;
16967;SDS011;8600;54.338;10.128;2022-08-18T05:17:11;7.97;;;5.25;;
16967;SDS011;8600;54.338;10.128;2022-08-18T05:19:40;7.75;;;5.40;;
16967;SDS011;8600;54.338;10.128;2022-08-18T05:22:08;11.93;;;5.85;;
16967;SDS011;8600;54.338;10.128;2022-08-18T05:24:35;7.65;;;6.20;;
16967;SDS011;8600;54.338;10.128;2022-08-18T05:27:03;11.48;;;6.80;;
16967;SDS011;8600;54.338;10.128;2022-08-18T05:29:31;9.50;;;6.75;;
16967;SDS011;8600;54.338;10.128;2022-08-18T05:32:01;13.10;;;7.05;;
16967;SDS011;8600;54.338;10.128;2022-08-18T05:34:32;9.88;;;6.88;;
16967;SDS011;8600;54.338;10.128;2022-08-18T05:37:07;12.60;;;7.38;;
16967;SDS011;8600;54.338;10.128;2022-08-18T05:39:44;9.45;;;7.55;;
16967;SDS011;8600;54.338;10.128;2022-08-18T05:42:21;11.82;;;8.15;;
16967;SDS011;8600;54.338;10.128;2022-08-18T05:44:50;9.77;;;7.25;;
16967;SDS011;8600;54.338;10.128;2022-08-18T05:47:21;14.25;;;7.95;;
16967;SDS011;8600;54.338;10.128;2022-08-18T05:49:51;13.57;;;7.57;;
16967;SDS011;8600;54.338;10.128;2022-08-18T05:52:22;14.77;;;7.53;;
16967;SDS011;8600;54.338;10.128;2022-08-18T05:54:55;11.10;;;7.05;;
16967;SDS011;8600;54.338;10.128;2022-08-18T05:57:45;10.77;;;6.88;;
16967;SDS011;8600;54.338;10.128;2022-08-18T06:00:15;10.15;;;6.43;;
16967;SDS011;8600;54.338;10.128;2022-08-18T06:02:45;7.70;;;6.60;;
16967;SDS011;8600;54.338;10.128;2022-08-18T06:05:19;8.03;;;5.97;;
16967;SDS011;8600;54.338;10.128;2022-08-18T06:07:52;10.15;;;6.43;;
16967;SDS011;8600;54.338;10.128;2022-08-18T06:10:22;10.70;;;5.95;;
16967;SDS011;8600;54.338;10.128;2022-08-18T06:12:50;10.40;;;6.22;;
16967;SDS011;8600;54.338;10.128;2022-08-18T06:15:20;12.20;;;6.93;;
16967;SDS011;8600;54.338;10.128;2022-08-18T06:18:03;8.07;;;6.28;;
16967;SDS011;8600;54.338;10.128;2022-08-18T06:20:44;8.85;;;7.03;;
16967;SDS011;8600;54.338;10.128;2022-08-18T06:23:28;9.85;;;6.90;;
16967;SDS011;8600;54.338;10.128;2022-08-18T06:26:03;13.02;;;7.35;;
16967;SDS011;8600;54.338;10.128;2022-08-18T06:28:43;12.02;;;7.78;;
16967;SDS011;8600;54.338;10.128;2022-08-18T06:31:19;11.95;;;6.75;;
16967;SDS011;8600;54.338;10.128;2022-08-18T06:33:56;9.77;;;6.93;;
16967;SDS011;8600;54.338;10.128;2022-08-18T06:36:31;11.00;;;7.40;;
16967;SDS011;8600;54.338;10.128;2022-08-18T06:39:06;9.32;;;7.22;;
16967;SDS011;8600;54.338;10.128;2022-08-18T06:41:43;11.23;;;6.70;;
16967;SDS011;8600;54.338;10.128;2022-08-18T06:44:18;9.88;;;6.68;;
16967;SDS011;8600;54.338;10.128;2022-08-18T06:46:49;9.95;;;6.53;;
16967;SDS011;8600;54.338;10.128;2022-08-18T06:49:25;14.95;;;7.50;;
16967;SDS011;8600;54.338;10.128;2022-08-18T06:54:48;14.73;;;6.65;;
16967;SDS011;8600;54.338;10.128;2022-08-18T06:57:26;10.93;;;6.78;;
16967;SDS011;8600;54.338;10.128;2022-08-18T06:59:56;12.00;;;6.85;;
16967;SDS011;8600;54.338;10.128;2022-08-18T07:02:29;8.45;;;6.43;;
16967;SDS011;8600;54.338;10.128;2022-08-18T07:05:14;11.00;;;7.00;;
16967;SDS011;8600;54.338;10.128;2022-08-18T07:07:45;13.50;;;7.32;;
16967;SDS011;8600;54.338;10.128;2022-08-18T07:10:29;10.82;;;6.82;;
16967;SDS011;8600;54.338;10.128;2022-08-18T07:15:46;13.10;;;6.85;;
16967;SDS011;8600;54.338;10.128;2022-08-18T07:18:15;10.30;;;6.25;;
16967;SDS011;8600;54.338;10.128;2022-08-18T07:20:49;9.43;;;6.30;;
16967;SDS011;8600;54.338;10.128;2022-08-18T07:23:23;12.73;;;6.50;;
16967;SDS011;8600;54.338;10.128;2022-08-18T07:26:02;9.27;;;6.28;;
16967;SDS011;8600;54.338;10.128;2022-08-18T07:28:35;7.75;;;6.50;;
16967;SDS011;8600;54.338;10.128;2022-08-18T07:31:11;12.32;;;6.13;;
16967;SDS011;8600;54.338;10.128;2022-08-18T07:34:02;12.13;;;6.82;;
16967;SDS011;8600;54.338;10.128;2022-08-18T07:36:34;7.95;;;6.25;;
16967;SDS011;8600;54.338;10.128;2022-08-18T07:39:12;10.38;;;5.80;;
16967;SDS011;8600;54.338;10.128;2022-08-18T07:41:48;10.10;;;6.43;;
16967;SDS011;8600;54.338;10.128;2022-08-18T07:44:23;9.13;;;6.70;;
16967;SDS011;8600;54.338;10.128;2022-08-18T07:46:59;10.90;;;7.10;;
16967;SDS011;8600;54.338;10.128;2022-08-18T07:49:31;11.32;;;6.53;;
16967;SDS011;8600;54.338;10.128;2022-08-18T07:52:01;8.43;;;6.45;;
16967;SDS011;8600;54.338;10.128;2022-08-18T07:54:34;9.63;;;6.70;;
16967;SDS011;8600;54.338;10.128;2022-08-18T07:57:14;10.57;;;6.70;;
16967;SDS011;8600;54.338;10.128;2022-08-18T07:59:48;12.90;;;6.75;;
16967;SDS011;8600;54.338;10.128;2022-08-18T08:02:27;9.48;;;6.10;;
16967;SDS011;8600;54.338;10.128;2022-08-18T08:05:06;13.50;;;7.68;;
16967;SDS011;8600;54.338;10.128;2022-08-18T08:07:41;11.02;;;7.50;;
16967;SDS011;8600;54.338;10.128;2022-08-18T08:10:18;10.55;;;7.03;;
16967;SDS011;8600;54.338;10.128;2022-08-18T08:12:54;9.57;;;7.32;;
16967;SDS011;8600;54.338;10.128;2022-08-18T08:15:31;14.07;;;7.50;;
16967;SDS011;8600;54.338;10.128;2022-08-18T08:18:09;13.18;;;7.60;;
16967;SDS011;8600;54.338;10.128;2022-08-18T08:20:42;11.40;;;7.40;;
16967;SDS011;8600;54.338;10.128;2022-08-18T08:23:17;12.90;;;8.32;;
16967;SDS011;8600;54.338;10.128;2022-08-18T08:26:16;10.13;;;7.18;;
16967;SDS011;8600;54.338;10.128;2022-08-18T08:28:54;14.80;;;8.15;;
16967;SDS011;8600;54.338;10.128;2022-08-18T08:31:30;16.27;;;8.70;;
16967;SDS011;8600;54.338;10.128;2022-08-18T08:34:05;12.35;;;8.77;;
16967;SDS011;8600;54.338;10.128;2022-08-18T08:36:39;12.05;;;8.90;;
16967;SDS011;8600;54.338;10.128;2022-08-18T08:39:10;13.05;;;9.75;;
16967;SDS011;8600;54.338;10.128;2022-08-18T08:41:43;10.65;;;8.50;;
16967;SDS011;8600;54.338;10.128;2022-08-18T08:44:18;11.48;;;8.60;;
16967;SDS011;8600;54.338;10.128;2022-08-18T08:46:51;12.85;;;8.90;;
16967;SDS011;8600;54.338;10.128;2022-08-18T08:49:28;12.35;;;8.43;;
16967;SDS011;8600;54.338;10.128;2022-08-18T08:52:02;15.38;;;9.07;;
16967;SDS011;8600;54.338;10.128;2022-08-18T08:54:35;11.73;;;8.10;;
16967;SDS011;8600;54.338;10.128;2022-08-18T08:57:09;12.60;;;7.47;;
16967;SDS011;8600;54.338;10.128;2022-08-18T08:59:39;18.25;;;9.23;;
16967;SDS011;8600;54.338;10.128;2022-08-18T09:02:24;14.30;;;9.23;;
16967;SDS011;8600;54.338;10.128;2022-08-18T09:04:59;10.00;;;7.70;;
16967;SDS011;8600;54.338;10.128;2022-08-18T09:07:37;11.93;;;8.40;;
16967;SDS011;8600;54.338;10.128;2022-08-18T09:10:40;10.07;;;7.60;;
16967;SDS011;8600;54.338;10.128;2022-08-18T09:13:24;14.50;;;8.00;;
16967;SDS011;8600;54.338;10.128;2022-08-18T09:16:17;10.48;;;8.35;;
16967;SDS011;8600;54.338;10.128;2022-08-18T09:19:03;12.10;;;8.10;;
16967;SDS011;8600;54.338;10.128;2022-08-18T09:21:40;14.85;;;9.30;;
16967;SDS011;8600;54.338;10.128;2022-08-18T09:24:19;14.55;;;8.63;;
16967;SDS011;8600;54.338;10.128;2022-08-18T09:26:50;12.82;;;9.23;;
16967;SDS011;8600;54.338;10.128;2022-08-18T09:29:20;14.32;;;8.85;;
16967;SDS011;8600;54.338;10.128;2022-08-18T09:35:07;13.05;;;8.95;;
16967;SDS011;8600;54.338;10.128;2022-08-18T09:40:33;12.27;;;8.73;;
16967;SDS011;8600;54.338;10.128;2022-08-18T09:43:24;14.52;;;9.95;;
16967;SDS011;8600;54.338;10.128;2022-08-18T09:45:58;17.25;;;9.48;;
16967;SDS011;8600;54.338;10.128;2022-08-18T09:48:34;11.75;;;8.90;;
16967;SDS011;8600;54.338;10.128;2022-08-18T09:51:14;15.52;;;9.07;;
16967;SDS011;8600;54.338;10.128;2022-08-18T10:09:00;13.68;;;9.80;;
16967;SDS011;8600;54.338;10.128;2022-08-18T10:11:51;15.20;;;10.52;;
16967;SDS011;8600;54.338;10.128;2022-08-18T10:14:31;15.02;;;8.45;;
16967;SDS011;8600;54.338;10.128;2022-08-18T10:17:12;11.52;;;9.35;;
16967;SDS011;8600;54.338;10.128;2022-08-18T10:20:03;11.25;;;9.07;;
16967;SDS011;8600;54.338;10.128;2022-08-18T10:22:42;13.45;;;8.95;;
16967;SDS011;8600;54.338;10.128;2022-08-18T10:25:12;10.68;;;8.68;;
16967;SDS011;8600;54.338;10.128;2022-08-18T10:27:55;16.02;;;9.75;;
16967;SDS011;8600;54.338;10.128;2022-08-18T10:33:12;11.10;;;8.10;;
16967;SDS011;8600;54.338;10.128;2022-08-18T10:36:27;10.43;;;7.68;;
16967;SDS011;8600;54.338;10.128;2022-08-18T10:39:10;10.27;;;8.80;;
16967;SDS011;8600;54.338;10.128;2022-08-18T10:41:44;11.80;;;8.85;;
16967;SDS011;8600;54.338;10.128;2022-08-18T10:44:19;13.10;;;9.70;;
16967;SDS011;8600;54.338;10.128;2022-08-18T10:46:48;14.30;;;8.52;;
16967;SDS011;8600;54.338;10.128;2022-08-18T10:49:21;13.98;;;8.55;;
16967;SDS011;8600;54.338;10.128;2022-08-18T10:51:58;13.93;;;9.25;;
16967;SDS011;8600;54.338;10.128;2022-08-18T10:54:53;11.55;;;7.63;;
16967;SDS011;8600;54.338;10.128;2022-08-18T10:57:46;9.50;;;7.80;;
16967;SDS011;8600;54.338;10.128;2022-08-18T11:00:40;12.82;;;9.25;;
16967;SDS011;8600;54.338;10.128;2022-08-18T11:03:18;12.43;;;9.73;;
16967;SDS011;8600;54.338;10.128;2022-08-18T11:05:59;12.75;;;8.73;;
16967;SDS011;8600;54.338;10.128;2022-08-18T11:08:32;10.43;;;8.23;;
16967;SDS011;8600;54.338;10.128;2022-08-18T11:11:10;10.98;;;8.13;;
16967;SDS011;8600;54.338;10.128;2022-08-18T11:13:43;14.73;;;11.20;;
16967;SDS011;8600;54.338;10.128;2022-08-18T11:16:21;15.95;;;9.30;;
16967;SDS011;8600;54.338;10.128;2022-08-18T11:19:02;13.30;;;9.23;;
16967;SDS011;8600;54.338;10.128;2022-08-18T11:21:33;12.68;;;9.80;;
16967;SDS011;8600;54.338;10.128;2022-08-18T11:24:07;14.38;;;8.88;;
16967;SDS011;8600;54.338;10.128;2022-08-18T11:26:37;13.05;;;10.38;;
16967;SDS011;8600;54.338;10.128;2022-08-18T11:29:16;15.18;;;12.02;;
16967;SDS011;8600;54.338;10.128;2022-08-18T11:31:45;15.00;;;9.00;;
16967;SDS011;8600;54.338;10.128;2022-08-18T11:34:14;15.05;;;9.80;;
16967;SDS011;8600;54.338;10.128;2022-08-18T11:36:53;15.05;;;11.52;;
16967;SDS011;8600;54.338;10.128;2022-08-18T11:39:23;11.95;;;9.57;;
16967;SDS011;8600;54.338;10.128;2022-08-18T11:41:50;13.98;;;10.35;;
16967;SDS011;8600;54.338;10.128;2022-08-18T11:44:18;16.40;;;11.75;;
16967;SDS011;8600;54.338;10.128;2022-08-18T11:46:48;12.13;;;10.65;;
16967;SDS011;8600;54.338;10.128;2022-08-18T11:49:27;14.00;;;10.95;;
16967;SDS011;8600;54.338;10.128;2022-08-18T11:51:58;13.02;;;10.00;;
16967;SDS011;8600;54.338;10.128;2022-08-18T11:54:34;13.30;;;9.63;;
16967;SDS011;8600;54.338;10.128;2022-08-18T11:59:56;13.35;;;10.80;;
16967;SDS011;8600;54.338;10.128;2022-08-18T12:02:24;15.05;;;10.65;;
16967;SDS011;8600;54.338;10.128;2022-08-18T12:04:52;16.45;;;11.30;;
16967;SDS011;8600;54.338;10.128;2022-08-18T12:07:28;17.15;;;12.05;;
16967;SDS011;8600;54.338;10.128;2022-08-18T12:10:13;16.05;;;11.40;;
16967;SDS011;8600;54.338;10.128;2022-08-18T12:12:50;13.50;;;10.65;;
16967;SDS011;8600;54.338;10.128;2022-08-18T12:15:26;12.10;;;10.02;;
16967;SDS011;8600;54.338;10.128;2022-08-18T12:17:55;13.63;;;9.55;;
16967;SDS011;8600;54.338;10.128;2022-08-18T12:20:22;13.27;;;9.50;;
16967;SDS011;8600;54.338;10.128;2022-08-18T12:22:49;16.70;;;10.65;;
16967;SDS011;8600;54.338;10.128;2022-08-18T12:25:22;14.40;;;9.57;;
16967;SDS011;8600;54.338;10.128;2022-08-18T12:27:48;15.10;;;9.77;;
16967;SDS011;8600;54.338;10.128;2022-08-18T12:30:15;14.05;;;10.27;;
16967;SDS011;8600;54.338;10.128;2022-08-18T12:32:43;14.65;;;10.25;;
16967;SDS011;8600;54.338;10.128;2022-08-18T12:35:10;15.75;;;11.18;;
16967;SDS011;8600;54.338;10.128;2022-08-18T12:37:40;13.02;;;11.63;;
16967;SDS011;8600;54.338;10.128;2022-08-18T12:40:09;14.45;;;11.60;;
16967;SDS011;8600;54.338;10.128;2022-08-18T12:42:39;15.88;;;12.43;;
16967;SDS011;8600;54.338;10.128;2022-08-18T12:45:06;20.63;;;16.00;;
16967;SDS011;8600;54.338;10.128;2022-08-18T12:47:35;22.73;;;17.15;;
16967;SDS011;8600;54.338;10.128;2022-08-18T12:50:05;22.75;;;16.08;;
16967;SDS011;8600;54.338;10.128;2022-08-18T12:52:32;23.98;;;17.20;;
16967;SDS011;8600;54.338;10.128;2022-08-18T12:54:59;21.55;;;17.80;;
16967;SDS011;8600;54.338;10.128;2022-08-18T12:57:26;23.25;;;19.13;;
16967;SDS011;8600;54.338;10.128;2022-08-18T12:59:55;26.13;;;20.98;;
16967;SDS011;8600;54.338;10.128;2022-08-18T13:02:22;27.80;;;21.35;;
16967;SDS011;8600;54.338;10.128;2022-08-18T13:04:49;22.73;;;19.77;;
16967;SDS011;8600;54.338;10.128;2022-08-18T13:07:16;26.13;;;21.05;;
16967;SDS011;8600;54.338;10.128;2022-08-18T13:09:43;29.95;;;22.38;;
16967;SDS011;8600;54.338;10.128;2022-08-18T13:12:11;26.70;;;20.30;;
16967;SDS011;8600;54.338;10.128;2022-08-18T13:14:38;30.73;;;23.83;;
16967;SDS011;8600;54.338;10.128;2022-08-18T13:17:07;27.88;;;21.10;;
16967;SDS011;8600;54.338;10.128;2022-08-18T13:19:34;26.73;;;19.98;;
16967;SDS011;8600;54.338;10.128;2022-08-18T13:22:01;27.85;;;21.65;;
16967;SDS011;8600;54.338;10.128;2022-08-18T13:24:28;31.45;;;22.35;;
16967;SDS011;8600;54.338;10.128;2022-08-18T13:26:55;26.95;;;21.55;;
16967;SDS011;8600;54.338;10.128;2022-08-18T13:29:22;28.23;;;22.30;;
16967;SDS011;8600;54.338;10.128;2022-08-18T13:31:50;28.45;;;21.70;;
16967;SDS011;8600;54.338;10.128;2022-08-18T13:34:23;27.83;;;21.33;;
16967;SDS011;8600;54.338;10.128;2022-08-18T13:36:51;31.55;;;21.75;;
16967;SDS011;8600;54.338;10.128;2022-08-18T13:39:19;25.23;;;20.15;;
16967;SDS011;8600;54.338;10.128;2022-08-18T13:41:47;22.25;;;18.70;;
16967;SDS011;8600;54.338;10.128;2022-08-18T13:44:16;24.10;;;19.40;;
16967;SDS011;8600;54.338;10.128;2022-08-18T13:46:47;25.92;;;21.15;;
16967;SDS011;8600;54.338;10.128;2022-08-18T13:49:16;30.63;;;21.30;;
16967;SDS011;8600;54.338;10.128;2022-08-18T13:51:47;26.45;;;21.67;;
16967;SDS011;8600;54.338;10.128;2022-08-18T13:54:17;25.23;;;19.77;;
16967;SDS011;8600;54.338;10.128;2022-08-18T13:56:46;26.13;;;19.40;;
16967;SDS011;8600;54.338;10.128;2022-08-18T13:59:14;23.20;;;18.50;;
16967;SDS011;8600;54.338;10.128;2022-08-18T14:01:42;23.27;;;16.67;;
16967;SDS011;8600;54.338;10.128;2022-08-18T14:04:09;18.63;;;14.40;;
16967;SDS011;8600;54.338;10.128;2022-08-18T14:06:37;15.95;;;14.13;;
16967;SDS011;8600;54.338;10.128;2022-08-18T14:09:06;19.95;;;14.45;;
16967;SDS011;8600;54.338;10.128;2022-08-18T14:11:33;18.27;;;14.73;;
16967;SDS011;8600;54.338;10.128;2022-08-18T14:14:02;19.45;;;15.48;;
16967;SDS011;8600;54.338;10.128;2022-08-18T14:16:30;17.70;;;13.90;;
16967;SDS011;8600;54.338;10.128;2022-08-18T14:18:58;20.70;;;16.00;;
16967;SDS011;8600;54.338;10.128;2022-08-18T14:21:43;24.35;;;16.05;;
16967;SDS011;8600;54.338;10.128;2022-08-18T14:24:31;19.13;;;15.15;;
16967;SDS011;8600;54.338;10.128;2022-08-18T14:27:16;15.63;;;12.73;;
16967;SDS011;8600;54.338;10.128;2022-08-18T14:29:43;19.55;;;14.85;;
16967;SDS011;8600;54.338;10.128;2022-08-18T14:32:13;20.23;;;14.50;;
16967;SDS011;8600;54.338;10.128;2022-08-18T14:34:43;20.02;;;13.10;;
16967;SDS011;8600;54.338;10.128;2022-08-18T14:37:10;18.15;;;15.40;;
16967;SDS011;8600;54.338;10.128;2022-08-18T14:39:39;17.00;;;14.82;;
16967;SDS011;8600;54.338;10.128;2022-08-18T14:42:06;18.38;;;13.82;;
16967;SDS011;8600;54.338;10.128;2022-08-18T14:44:33;17.15;;;13.32;;
16967;SDS011;8600;54.338;10.128;2022-08-18T14:47:00;16.70;;;14.07;;
16967;SDS011;8600;54.338;10.128;2022-08-18T14:49:27;15.93;;;13.55;;
16967;SDS011;8600;54.338;10.128;2022-08-18T14:51:55;21.65;;;15.68;;
16967;SDS011;8600;54.338;10.128;2022-08-18T14:54:23;19.98;;;14.88;;
16967;SDS011;8600;54.338;10.128;2022-08-18T14:56:51;19.77;;;14.82;;
16967;SDS011;8600;54.338;10.128;2022-08-18T14:59:18;17.02;;;14.43;;
16967;SDS011;8600;54.338;10.128;2022-08-18T15:01:47;17.25;;;13.50;;
16967;SDS011;8600;54.338;10.128;2022-08-18T15:04:14;16.60;;;13.48;;
16967;SDS011;8600;54.338;10.128;2022-08-18T15:06:41;18.20;;;15.70;;
16967;SDS011;8600;54.338;10.128;2022-08-18T15:09:08;19.70;;;14.43;;
16967;SDS011;8600;54.338;10.128;2022-08-18T15:11:35;20.35;;;15.82;;
16967;SDS011;8600;54.338;10.128;2022-08-18T15:14:03;20.23;;;16.10;;
16967;SDS011;8600;54.338;10.128;2022-08-18T15:16:30;20.33;;;15.35;;
16967;SDS011;8600;54.338;10.128;2022-08-18T15:18:59;20.25;;;15.00;;
16967;SDS011;8600;54.338;10.128;2022-08-18T15:21:27;18.08;;;13.30;;
16967;SDS011;8600;54.338;10.128;2022-08-18T15:24:11;18.63;;;14.15;;
16967;SDS011;8600;54.338;10.128;2022-08-18T15:26:56;18.73;;;14.00;;
16967;SDS011;8600;54.338;10.128;2022-08-18T15:29:25;18.85;;;14.88;;
16967;SDS011;8600;54.338;10.128;2022-08-18T15:31:52;19.20;;;16.50;;
16967;SDS011;8600;54.338;10.128;2022-08-18T15:34:19;19.52;;;16.67;;
16967;SDS011;8600;54.338;10.128;2022-08-18T15:36:47;23.33;;;15.98;;